createdAt,value
2017-11-23T00:00:04.874Z,4.37
2017-11-23T00:01:04.801Z,4.24
2017-11-23T00:02:04.831Z,4.28
2017-11-23T00:03:04.717Z,4.39
2017-11-23T00:04:04.710Z,4.42
2017-11-23T00:05:04.712Z,4.55
2017-11-23T00:06:04.638Z,4.95
2017-11-23T00:07:04.545Z,4.88
2017-11-23T00:08:04.500Z,4.84
2017-11-23T00:09:04.538Z,4.84
2017-11-23T00:10:04.389Z,4.96
2017-11-23T00:11:04.378Z,4.77
2017-11-23T00:12:04.316Z,4.92
2017-11-23T00:13:04.269Z,4.91
2017-11-23T00:14:04.367Z,4.99
2017-11-23T00:15:04.222Z,5.02
2017-11-23T00:16:04.147Z,4.94
2017-11-23T00:17:04.079Z,4.91
2017-11-23T00:18:04.149Z,4.70
2017-11-23T00:19:04.035Z,4.98
2017-11-23T00:20:03.945Z,5.16
2017-11-23T00:21:04.877Z,4.99
2017-11-23T00:22:03.918Z,5.07
2017-11-23T00:23:03.910Z,5.05
2017-11-23T00:24:03.825Z,5.12
2017-11-23T00:25:03.811Z,5.30
2017-11-23T00:26:03.789Z,5.14
2017-11-23T00:27:03.721Z,5.20
2017-11-23T00:28:03.729Z,5.70
2017-11-23T00:29:03.555Z,5.59
2017-11-23T00:30:03.539Z,5.46
2017-11-23T00:31:03.480Z,5.37
2017-11-23T00:32:03.412Z,5.17
2017-11-23T00:33:03.888Z,5.14
2017-11-23T00:34:03.338Z,5.19
2017-11-23T00:35:03.335Z,5.48
2017-11-23T00:36:03.298Z,5.73
2017-11-23T00:37:03.202Z,5.66
2017-11-23T00:38:03.227Z,5.63
2017-11-23T00:39:03.241Z,5.77
2017-11-23T00:40:03.165Z,5.74
2017-11-23T00:41:03.229Z,5.63
2017-11-23T00:42:02.980Z,5.60
2017-11-23T00:43:03.000Z,5.53
2017-11-23T00:44:02.893Z,5.67
2017-11-23T00:45:02.892Z,5.59
2017-11-23T00:46:02.806Z,5.67
2017-11-23T00:47:02.752Z,5.64
2017-11-23T00:48:02.716Z,5.64
2017-11-23T00:49:02.716Z,5.55
2017-11-23T00:50:02.732Z,5.49
2017-11-23T00:51:02.593Z,5.50
2017-11-23T00:52:02.512Z,5.70
2017-11-23T00:53:02.659Z,5.92
2017-11-23T00:54:02.519Z,6.19
2017-11-23T00:55:02.462Z,6.99
2017-11-23T00:56:02.373Z,7.90
2017-11-23T00:57:02.364Z,8.15
2017-11-23T00:58:02.233Z,8.15
2017-11-23T00:59:02.224Z,8.00
2017-11-23T01:00:02.226Z,7.77
2017-11-23T01:01:02.143Z,7.53
2017-11-23T01:02:02.088Z,7.29
2017-11-23T01:03:02.008Z,7.49
2017-11-23T01:04:01.985Z,7.77
2017-11-23T01:05:01.966Z,7.94
2017-11-23T01:06:01.914Z,7.87
2017-11-23T01:07:01.887Z,7.66
2017-11-23T01:08:01.788Z,7.85
2017-11-23T01:09:01.754Z,8.02
2017-11-23T01:10:01.744Z,7.96
2017-11-23T01:11:01.654Z,7.94
2017-11-23T01:12:01.647Z,8.00
2017-11-23T01:13:01.558Z,7.92
2017-11-23T01:14:01.521Z,7.72
2017-11-23T01:15:01.494Z,7.45
2017-11-23T01:16:01.505Z,7.37
2017-11-23T01:17:01.416Z,7.35
2017-11-23T01:18:01.377Z,7.26
2017-11-23T01:19:01.299Z,7.07
2017-11-23T01:20:01.287Z,6.89
2017-11-23T01:21:01.207Z,7.29
2017-11-23T01:22:01.201Z,7.16
2017-11-23T01:23:01.270Z,7.16
2017-11-23T01:24:01.201Z,7.89
2017-11-23T01:25:01.039Z,8.20
2017-11-23T01:26:01.005Z,8.14
2017-11-23T01:27:00.944Z,7.66
2017-11-23T01:28:00.917Z,7.59
2017-11-23T01:29:00.916Z,7.34
2017-11-23T01:30:00.846Z,7.82
2017-11-23T01:31:00.801Z,7.93
2017-11-23T01:32:00.791Z,8.02
2017-11-23T01:33:00.714Z,7.79
2017-11-23T01:34:00.651Z,7.97
2017-11-23T01:35:00.590Z,8.11
2017-11-23T01:36:00.567Z,8.29
2017-11-23T01:37:00.534Z,8.37
2017-11-23T01:38:00.471Z,8.45
2017-11-23T01:39:00.507Z,8.22
2017-11-23T01:40:00.379Z,8.08
2017-11-23T01:41:00.389Z,7.87
2017-11-23T01:42:00.294Z,7.55
2017-11-23T01:43:00.274Z,7.38
2017-11-23T01:44:00.205Z,7.35
2017-11-23T01:45:00.169Z,7.26
2017-11-23T01:46:00.161Z,7.02
2017-11-23T01:47:00.071Z,6.99
2017-11-23T01:48:00.069Z,6.95
2017-11-23T01:48:59.980Z,7.13
2017-11-23T01:49:59.939Z,7.35
2017-11-23T01:50:59.897Z,7.34
2017-11-23T01:51:59.876Z,7.40
2017-11-23T01:52:59.812Z,7.42
2017-11-23T01:53:59.774Z,7.19
2017-11-23T01:54:59.737Z,7.09
2017-11-23T01:55:59.718Z,7.08
2017-11-23T01:56:59.655Z,6.99
2017-11-23T01:57:59.588Z,6.87
2017-11-23T01:58:59.550Z,6.69
2017-11-23T01:59:59.505Z,6.54
2017-11-23T02:00:59.481Z,6.43
2017-11-23T02:02:00.410Z,6.38
2017-11-23T02:02:59.376Z,6.32
2017-11-23T02:03:59.368Z,6.18
2017-11-23T02:04:59.304Z,6.35
2017-11-23T02:05:59.248Z,6.38
2017-11-23T02:06:59.230Z,6.33
2017-11-23T02:07:59.162Z,6.14
2017-11-23T02:08:59.126Z,6.11
2017-11-23T02:09:59.077Z,6.07
2017-11-23T02:10:59.081Z,5.91
2017-11-23T02:11:59.916Z,5.86
2017-11-23T02:12:58.966Z,5.83
2017-11-23T02:13:58.914Z,5.89
2017-11-23T02:14:58.858Z,6.03
2017-11-23T02:15:58.811Z,6.58
2017-11-23T02:16:58.780Z,6.44
2017-11-23T02:17:58.736Z,6.19
2017-11-23T02:18:58.689Z,6.11
2017-11-23T02:19:58.629Z,6.04
2017-11-23T02:20:58.633Z,5.95
2017-11-23T02:21:58.543Z,5.96
2017-11-23T02:22:58.587Z,5.86
2017-11-23T02:23:58.451Z,5.81
2017-11-23T02:24:58.450Z,5.78
2017-11-23T02:25:58.361Z,5.74
2017-11-23T02:26:58.340Z,5.64
2017-11-23T02:27:58.279Z,5.56
2017-11-23T02:28:58.243Z,5.59
2017-11-23T02:29:58.187Z,5.63
2017-11-23T02:30:58.212Z,5.82
2017-11-23T02:31:58.126Z,6.01
2017-11-23T02:32:58.077Z,5.91
2017-11-23T02:33:58.042Z,5.74
2017-11-23T02:34:57.981Z,5.85
2017-11-23T02:35:57.973Z,5.71
2017-11-23T02:36:57.890Z,5.73
2017-11-23T02:37:57.841Z,5.67
2017-11-23T02:38:57.926Z,5.73
2017-11-23T02:39:57.746Z,5.71
2017-11-23T02:40:57.745Z,6.04
2017-11-23T02:41:57.657Z,6.14
2017-11-23T02:42:57.639Z,6.40
2017-11-23T02:43:57.638Z,6.63
2017-11-23T02:44:57.556Z,6.61
2017-11-23T02:45:57.486Z,6.41
2017-11-23T02:46:57.467Z,6.38
2017-11-23T02:47:57.465Z,6.30
2017-11-23T02:48:57.398Z,6.61
2017-11-23T02:49:57.367Z,6.54
2017-11-23T02:50:57.294Z,6.65
2017-11-23T02:51:57.279Z,6.72
2017-11-23T02:52:57.184Z,6.51
2017-11-23T02:53:57.124Z,6.84
2017-11-23T02:54:57.096Z,6.91
2017-11-23T02:55:57.041Z,6.71
2017-11-23T02:56:57.044Z,6.50
2017-11-23T02:57:56.944Z,6.35
2017-11-23T02:58:56.908Z,6.26
2017-11-23T02:59:56.901Z,6.09
2017-11-23T03:00:56.862Z,5.98
2017-11-23T03:01:56.774Z,6.41
2017-11-23T03:02:56.776Z,6.33
2017-11-23T03:03:56.691Z,6.33
2017-11-23T03:04:56.652Z,6.16
2017-11-23T03:05:56.622Z,5.82
2017-11-23T03:06:56.640Z,5.75
2017-11-23T03:07:56.580Z,5.71
2017-11-23T03:08:56.490Z,5.56
2017-11-23T03:09:56.410Z,5.41
2017-11-23T03:10:56.425Z,5.32
2017-11-23T03:11:56.363Z,5.25
2017-11-23T03:12:56.322Z,5.25
2017-11-23T03:13:56.251Z,5.05
2017-11-23T03:14:56.236Z,5.02
2017-11-23T03:15:56.149Z,5.01
2017-11-23T03:16:56.247Z,4.98
2017-11-23T03:17:56.098Z,4.99
2017-11-23T03:18:56.068Z,5.09
2017-11-23T03:19:56.016Z,5.07
2017-11-23T03:20:55.948Z,5.25
2017-11-23T03:21:55.894Z,5.07
2017-11-23T03:22:55.868Z,5.14
2017-11-23T03:23:55.838Z,5.14
2017-11-23T03:24:55.748Z,5.25
2017-11-23T03:25:55.752Z,5.09
2017-11-23T03:26:55.700Z,5.12
2017-11-23T03:27:55.616Z,5.16
2017-11-23T03:28:55.642Z,5.28
2017-11-23T03:29:55.557Z,5.14
2017-11-23T03:30:55.518Z,5.02
2017-11-23T03:31:55.448Z,5.02
2017-11-23T03:32:55.404Z,4.98
2017-11-23T03:33:55.446Z,5.01
2017-11-23T03:34:55.334Z,4.99
2017-11-23T03:35:55.282Z,5.04
2017-11-23T03:36:55.216Z,5.01
2017-11-23T03:37:55.221Z,4.92
2017-11-23T03:38:55.137Z,4.83
2017-11-23T03:39:55.133Z,4.95
2017-11-23T03:40:55.089Z,4.83
2017-11-23T03:41:55.028Z,4.76
2017-11-23T03:42:55.067Z,4.76
2017-11-23T03:43:54.916Z,4.84
2017-11-23T03:44:54.992Z,4.88
2017-11-23T03:45:54.858Z,4.80
2017-11-23T03:46:54.794Z,4.91
2017-11-23T03:47:54.827Z,5.01
2017-11-23T03:48:54.748Z,5.16
2017-11-23T03:49:54.651Z,5.25
2017-11-23T03:50:57.512Z,5.35
2017-11-23T03:51:54.558Z,5.41
2017-11-23T03:52:54.504Z,5.74
2017-11-23T03:53:54.471Z,5.89
2017-11-23T03:54:54.458Z,6.29
2017-11-23T03:55:54.371Z,6.04
2017-11-23T03:56:54.314Z,5.92
2017-11-23T03:57:54.343Z,5.67
2017-11-23T03:58:54.291Z,5.73
2017-11-23T03:59:54.183Z,6.00
2017-11-23T04:00:54.199Z,5.88
2017-11-23T04:01:54.210Z,5.75
2017-11-23T04:02:54.072Z,5.64
2017-11-23T04:03:54.038Z,5.46
2017-11-23T04:04:54.048Z,5.22
2017-11-23T04:05:53.952Z,5.04
2017-11-23T04:06:53.914Z,4.99
2017-11-23T04:07:53.853Z,4.79
2017-11-23T04:08:53.800Z,4.67
2017-11-23T04:09:54.438Z,4.62
2017-11-23T04:10:53.764Z,4.40
2017-11-23T04:11:53.676Z,4.42
2017-11-23T04:12:53.623Z,4.54
2017-11-23T04:13:53.599Z,4.54
2017-11-23T04:14:53.569Z,4.18
2017-11-23T04:15:53.470Z,4.32
2017-11-23T04:16:53.446Z,4.00
2017-11-23T04:17:53.395Z,3.92
2017-11-23T04:18:53.392Z,3.88
2017-11-23T04:19:53.311Z,3.80
2017-11-23T04:20:53.271Z,4.01
2017-11-23T04:21:53.189Z,4.01
2017-11-23T04:22:53.164Z,3.92
2017-11-23T04:23:53.099Z,3.82
2017-11-23T04:24:53.078Z,3.79
2017-11-23T04:25:53.022Z,3.82
2017-11-23T04:26:53.167Z,3.82
2017-11-23T04:27:53.004Z,3.75
2017-11-23T04:28:52.876Z,3.64
2017-11-23T04:29:52.835Z,3.49
2017-11-23T04:30:52.822Z,3.28
2017-11-23T04:31:52.849Z,3.27
2017-11-23T04:32:52.821Z,3.27
2017-11-23T04:33:52.670Z,3.21
2017-11-23T04:34:52.674Z,3.13
2017-11-23T04:35:52.688Z,3.02
2017-11-23T04:36:52.527Z,3.03
2017-11-23T04:37:52.533Z,3.06
2017-11-23T04:38:52.452Z,2.98
2017-11-23T04:39:52.534Z,3.25
2017-11-23T04:40:53.529Z,3.24
2017-11-23T04:41:52.319Z,3.12
2017-11-23T04:42:52.285Z,2.98
2017-11-23T04:43:52.456Z,2.98
2017-11-23T04:44:52.212Z,3.05
2017-11-23T04:45:52.185Z,3.07
2017-11-23T04:46:52.168Z,2.95
2017-11-23T04:47:52.029Z,3.03
2017-11-23T04:48:52.182Z,3.09
2017-11-23T04:49:51.963Z,3.31
2017-11-23T04:50:51.916Z,3.07
2017-11-23T04:51:52.102Z,3.09
2017-11-23T04:52:51.985Z,3.57
2017-11-23T04:53:51.905Z,3.76
2017-11-23T04:54:51.845Z,3.70
2017-11-23T04:55:51.803Z,3.83
2017-11-23T04:56:51.642Z,4.03
2017-11-23T04:57:53.589Z,4.21
2017-11-23T04:58:51.641Z,4.18
2017-11-23T04:59:51.640Z,4.00
2017-11-23T05:01:06.214Z,4.33
2017-11-23T05:01:51.441Z,4.32
2017-11-23T05:02:51.915Z,4.44
2017-11-23T05:03:51.465Z,4.42
2017-11-23T05:04:54.425Z,4.51
2017-11-23T05:05:51.385Z,4.50
2017-11-23T05:06:51.402Z,4.52
2017-11-23T05:07:51.231Z,4.55
2017-11-23T05:08:51.160Z,4.37
2017-11-23T05:09:53.241Z,4.52
2017-11-23T05:13:34.505Z,4.55
2017-11-23T05:15:19.525Z,4.52
2017-11-23T05:18:22.842Z,4.15
2017-11-23T05:19:23.275Z,4.14
2017-11-23T05:21:37.255Z,3.79
2017-11-23T05:22:36.510Z,3.85
2017-11-23T05:24:44.616Z,3.67
2017-11-23T05:27:48.544Z,3.72
2017-11-23T05:28:48.782Z,3.76
2017-11-23T05:30:49.248Z,3.64
2017-11-23T05:31:49.187Z,3.58
2017-11-23T05:33:42.911Z,3.70
2017-11-23T05:34:43.165Z,3.67
2017-11-23T05:37:16.359Z,3.50
2017-11-23T05:40:03.627Z,3.24
2017-11-23T05:41:03.095Z,3.10
2017-11-23T05:43:07.572Z,2.88
2017-11-23T05:44:07.568Z,2.88
2017-11-23T05:46:03.267Z,2.74
2017-11-23T05:47:01.552Z,2.74
2017-11-23T05:49:01.029Z,2.66
2017-11-23T05:50:28.639Z,2.53
2017-11-23T05:51:56.329Z,2.51
2017-11-23T05:54:46.282Z,2.55
2017-11-23T05:55:43.076Z,2.58
2017-11-23T06:00:54.354Z,2.16
2017-11-23T06:01:49.474Z,2.22
2017-11-23T06:04:01.609Z,1.98
2017-11-23T06:07:38.743Z,2.06
2017-11-23T06:10:22.053Z,2.30
2017-11-23T06:11:22.490Z,2.67
2017-11-23T06:13:49.699Z,2.49
2017-11-23T06:14:48.742Z,2.28
2017-11-23T06:17:45.306Z,1.97
2017-11-23T06:18:21.016Z,1.91
2017-11-23T06:21:58.643Z,2.19
2017-11-23T06:22:22.067Z,2.09
2017-11-23T06:24:17.540Z,1.91
2017-11-23T06:32:44.468Z,1.62
2017-11-23T06:33:58.371Z,1.52
2017-11-23T06:35:43.511Z,1.64
2017-11-23T06:37:45.505Z,1.62
2017-11-23T06:37:48.510Z,1.61
2017-11-23T06:40:41.111Z,1.85
2017-11-23T06:41:40.522Z,1.64
2017-11-23T06:45:48.684Z,1.79
2017-11-23T06:46:43.760Z,1.73
2017-11-23T06:55:00.476Z,1.47
2017-11-23T06:56:12.574Z,1.51
2017-11-23T07:00:04.702Z,1.78
2017-11-23T07:01:04.074Z,1.80
2017-11-23T07:03:00.344Z,1.78
2017-11-23T07:08:06.577Z,2.04
2017-11-23T07:11:17.087Z,2.31
2017-11-23T07:15:59.787Z,2.92
2017-11-23T07:37:22.327Z,8.11
2017-11-23T07:40:50.315Z,8.68
2017-11-23T07:41:12.347Z,8.60
2017-11-23T07:43:08.574Z,8.65
2017-11-23T07:44:08.385Z,8.75
2017-11-23T07:46:29.372Z,9.16
2017-11-23T07:47:29.294Z,9.13
2017-11-23T07:49:22.451Z,9.27
2017-11-23T07:50:22.290Z,9.15
2017-11-23T07:51:22.787Z,9.21
2017-11-23T07:52:22.261Z,9.10
2017-11-23T07:53:22.136Z,8.99
2017-11-23T07:54:22.126Z,9.02
2017-11-23T07:55:22.631Z,9.09
2017-11-23T07:57:18.250Z,9.12
2017-11-23T07:58:18.582Z,9.06
2017-11-23T08:00:11.194Z,8.97
2017-11-23T08:01:11.165Z,8.96
2017-11-23T08:03:05.775Z,9.23
2017-11-23T08:04:05.719Z,9.13
2017-11-23T08:05:58.789Z,9.04
2017-11-23T08:06:58.715Z,9.02
2017-11-23T08:08:51.868Z,9.38
2017-11-23T08:09:52.244Z,9.45
2017-11-23T08:11:44.941Z,9.50
2017-11-23T08:12:44.934Z,9.31
2017-11-23T08:14:40.150Z,9.21
2017-11-23T08:15:39.512Z,8.97
2017-11-23T08:17:32.612Z,9.04
2017-11-23T08:18:33.022Z,9.02
2017-11-23T08:20:25.934Z,9.18
2017-11-23T08:21:25.606Z,9.06
2017-11-23T08:23:18.845Z,9.12
2017-11-23T08:24:18.765Z,9.06
2017-11-23T08:26:14.872Z,8.97
2017-11-23T08:27:14.797Z,8.94
2017-11-23T08:29:08.435Z,9.25
2017-11-23T08:30:08.804Z,9.30
2017-11-23T08:32:02.112Z,9.27
2017-11-23T08:33:01.464Z,9.24
2017-11-23T08:34:55.055Z,9.34
2017-11-23T08:35:54.457Z,9.35
2017-11-23T08:37:47.638Z,9.45
2017-11-23T08:38:48.056Z,9.42
2017-11-23T08:40:40.695Z,9.52
2017-11-23T08:41:40.612Z,9.56
2017-11-23T08:43:33.793Z,9.58
2017-11-23T08:44:34.191Z,9.66
2017-11-23T08:46:27.316Z,9.63
2017-11-23T08:47:26.712Z,9.53
2017-11-23T08:49:19.907Z,9.57
2017-11-23T08:50:19.803Z,9.63
2017-11-23T08:52:13.445Z,9.89
2017-11-23T08:53:12.854Z,10.01
2017-11-23T08:55:06.474Z,10.51
2017-11-23T08:56:06.378Z,10.58
2017-11-23T08:57:59.829Z,10.74
2017-11-23T08:58:59.943Z,10.81
2017-11-23T09:00:52.545Z,11.32
2017-11-23T09:03:45.609Z,12.81
2017-11-23T09:04:45.581Z,12.69
2017-11-23T09:06:38.705Z,12.64
2017-11-23T09:07:39.128Z,12.87
2017-11-23T09:09:31.761Z,12.45
2017-11-23T09:10:32.205Z,12.49
2017-11-23T09:12:26.420Z,12.92
2017-11-23T09:13:26.281Z,12.93
2017-11-23T09:15:20.122Z,12.92
2017-11-23T09:16:19.300Z,12.96
2017-11-23T09:18:12.760Z,12.84
2017-11-23T09:19:12.339Z,13.03
2017-11-23T09:21:06.026Z,13.54
2017-11-23T09:22:05.491Z,12.96
2017-11-23T09:23:58.523Z,12.45
2017-11-23T09:24:58.481Z,12.62
2017-11-23T09:26:51.618Z,12.78
2017-11-23T09:27:51.563Z,13.27
2017-11-23T09:29:45.265Z,12.67
2017-11-23T09:30:45.602Z,12.75
2017-11-23T09:32:38.267Z,12.74
2017-11-23T09:33:38.186Z,12.82
2017-11-23T09:35:31.855Z,13.00
2017-11-23T09:36:31.248Z,13.22
2017-11-23T09:38:24.365Z,13.83
2017-11-23T09:39:24.312Z,14.37
2017-11-23T09:41:17.475Z,14.78
2017-11-23T09:42:17.847Z,14.88
2017-11-23T09:44:10.508Z,15.15
2017-11-23T09:45:10.946Z,15.43
2017-11-23T09:47:03.818Z,15.19
2017-11-23T09:48:03.416Z,14.46
2017-11-23T09:49:56.891Z,13.83
2017-11-23T09:50:56.526Z,13.24
2017-11-23T09:52:50.736Z,13.29
2017-11-23T09:53:49.596Z,13.03
2017-11-23T09:55:43.015Z,12.99
2017-11-23T09:56:43.189Z,12.97
2017-11-23T09:58:35.808Z,13.00
2017-11-23T09:59:36.207Z,13.22
2017-11-23T10:01:28.798Z,13.11
2017-11-23T10:02:28.798Z,13.11
2017-11-23T10:04:22.910Z,13.03
2017-11-23T10:05:21.798Z,12.93
2017-11-23T10:07:14.939Z,13.04
2017-11-23T10:08:14.915Z,13.03
2017-11-23T10:10:08.024Z,12.99
2017-11-23T10:11:07.904Z,13.02
2017-11-23T10:13:01.026Z,12.77
2017-11-23T10:14:00.986Z,12.82
2017-11-23T10:15:54.166Z,13.59
2017-11-23T10:16:54.533Z,13.92
2017-11-23T10:18:47.116Z,14.28
2017-11-23T10:19:47.095Z,14.20
2017-11-23T10:21:40.267Z,14.54
2017-11-23T10:22:40.133Z,14.69
2017-11-23T10:24:33.282Z,14.54
2017-11-23T10:25:33.198Z,14.56
2017-11-23T10:27:26.361Z,14.62
2017-11-23T10:28:26.723Z,15.17
2017-11-23T10:30:19.855Z,14.57
2017-11-23T10:31:19.268Z,14.52
2017-11-23T10:33:12.422Z,15.03
2017-11-23T10:34:12.353Z,14.78
2017-11-23T10:36:05.451Z,14.50
2017-11-23T10:37:05.834Z,14.62
2017-11-23T10:38:58.547Z,15.38
2017-11-23T10:39:58.504Z,15.11
2017-11-23T10:41:51.936Z,14.17
2017-11-23T10:42:51.512Z,14.47
2017-11-23T10:44:44.952Z,14.10
2017-11-23T10:45:44.543Z,14.43
2017-11-23T10:47:37.680Z,14.57
2017-11-23T10:48:37.635Z,14.57
2017-11-23T10:50:31.130Z,14.50
2017-11-23T10:51:30.813Z,14.16
2017-11-23T10:53:24.428Z,14.07
2017-11-23T10:54:24.374Z,13.89
2017-11-23T10:56:17.534Z,13.84
2017-11-23T10:57:17.411Z,14.01
2017-11-23T10:59:10.838Z,13.69
2017-11-23T11:00:10.442Z,13.69
2017-11-23T11:02:03.665Z,13.67
2017-11-23T11:03:03.463Z,13.67
2017-11-23T11:04:56.966Z,13.46
2017-11-23T11:05:56.663Z,13.52
2017-11-23T11:07:50.302Z,13.36
2017-11-23T11:08:49.645Z,13.44
2017-11-23T11:10:43.296Z,13.32
2017-11-23T11:11:43.264Z,13.32
2017-11-23T11:13:36.585Z,13.58
2017-11-23T11:14:36.255Z,13.49
2017-11-23T11:16:29.415Z,13.47
2017-11-23T11:17:29.336Z,13.49
2017-11-23T11:19:23.063Z,13.54
2017-11-23T11:20:22.785Z,13.52
2017-11-23T11:22:16.068Z,13.49
2017-11-23T11:23:15.466Z,13.32
2017-11-23T11:25:10.195Z,13.44
2017-11-23T11:26:10.053Z,13.29
2017-11-23T11:28:03.480Z,13.17
2017-11-23T11:29:03.075Z,13.11
2017-11-23T11:30:56.917Z,13.09
2017-11-23T11:31:56.165Z,13.11
2017-11-23T11:33:49.262Z,13.14
2017-11-23T11:34:49.766Z,13.00
2017-11-23T11:36:43.017Z,12.89
2017-11-23T11:37:42.413Z,13.06
2017-11-23T11:39:35.520Z,13.33
2017-11-23T11:40:35.469Z,13.27
2017-11-23T11:42:29.084Z,13.02
2017-11-23T11:43:28.486Z,13.04
2017-11-23T11:45:22.126Z,13.12
2017-11-23T11:46:22.016Z,13.04
2017-11-23T11:48:15.219Z,13.77
2017-11-23T11:49:15.124Z,13.74
2017-11-23T11:51:08.254Z,13.81
2017-11-23T11:52:08.205Z,14.17
2017-11-23T11:54:01.319Z,14.52
2017-11-23T11:55:01.202Z,14.16
2017-11-23T11:56:54.267Z,14.62
2017-11-23T11:57:54.287Z,14.80
2017-11-23T11:59:48.024Z,15.23
2017-11-23T12:00:47.823Z,15.12
2017-11-23T12:02:40.463Z,14.87
2017-11-23T12:03:40.389Z,14.86
2017-11-23T12:05:33.579Z,15.12
2017-11-23T12:06:33.493Z,15.23
2017-11-23T12:08:26.546Z,15.12
2017-11-23T12:09:26.636Z,14.94
2017-11-23T12:11:19.910Z,14.99
2017-11-23T12:12:20.076Z,15.46
2017-11-23T12:14:12.956Z,14.90
2017-11-23T12:15:12.577Z,15.13
2017-11-23T12:17:06.118Z,14.91
2017-11-23T12:18:05.691Z,14.81
2017-11-23T12:19:59.830Z,14.10
2017-11-23T12:20:58.649Z,14.21
2017-11-23T12:22:52.426Z,14.28
2017-11-23T12:23:52.344Z,14.24
2017-11-23T12:25:45.931Z,14.29
2017-11-23T12:26:45.904Z,14.49
2017-11-23T12:28:39.003Z,14.62
2017-11-23T12:29:38.971Z,14.46
2017-11-23T12:31:32.134Z,14.52
2017-11-23T12:32:32.048Z,14.57
2017-11-23T12:34:25.360Z,14.32
2017-11-23T12:35:25.585Z,14.43
2017-11-23T12:37:18.723Z,14.29
2017-11-23T12:38:18.129Z,14.21
2017-11-23T12:40:11.809Z,14.19
2017-11-23T12:41:11.137Z,14.21
2017-11-23T12:43:04.283Z,14.13
2017-11-23T12:44:04.429Z,14.16
2017-11-23T12:45:57.354Z,14.19
2017-11-23T12:46:57.307Z,14.29
2017-11-23T12:48:50.446Z,14.28
2017-11-23T12:49:50.301Z,14.14
2017-11-23T12:51:44.045Z,14.24
2017-11-23T12:52:43.934Z,14.21
2017-11-23T12:54:38.439Z,14.07
2017-11-23T12:55:38.402Z,14.25
2017-11-23T12:57:31.466Z,13.95
2017-11-23T12:58:31.399Z,14.02
2017-11-23T13:00:24.565Z,14.02
2017-11-23T13:01:24.993Z,13.89
2017-11-23T13:03:17.683Z,13.88
2017-11-23T13:04:17.491Z,14.01
2017-11-23T13:06:10.641Z,13.77
2017-11-23T13:07:10.626Z,13.84
2017-11-23T13:09:03.791Z,13.96
2017-11-23T13:10:04.218Z,13.99
2017-11-23T13:11:56.737Z,13.88
2017-11-23T13:12:57.177Z,13.87
2017-11-23T13:14:49.924Z,13.73
2017-11-23T13:15:49.758Z,13.71
2017-11-23T13:17:42.858Z,13.71
2017-11-23T13:18:43.647Z,13.59
2017-11-23T13:20:35.949Z,13.70
2017-11-23T13:21:35.958Z,13.62
2017-11-23T13:23:29.294Z,13.47
2017-11-23T13:24:29.005Z,13.37
2017-11-23T13:26:22.118Z,13.41
2017-11-23T13:27:21.971Z,13.46
2017-11-23T13:29:15.088Z,13.36
2017-11-23T13:30:15.160Z,13.37
2017-11-23T13:32:08.794Z,13.37
2017-11-23T13:33:08.104Z,13.41
2017-11-23T13:35:01.274Z,13.51
2017-11-23T13:36:01.686Z,13.65
2017-11-23T13:37:54.850Z,13.38
2017-11-23T13:38:54.794Z,13.43
2017-11-23T13:40:47.888Z,13.30
2017-11-23T13:41:47.811Z,13.21
2017-11-23T13:43:41.231Z,13.27
2017-11-23T13:44:40.880Z,13.36
2017-11-23T13:46:35.537Z,13.29
2017-11-23T13:47:35.412Z,13.40
2017-11-23T13:49:29.152Z,13.25
2017-11-23T13:50:28.549Z,13.04
2017-11-23T13:52:22.342Z,13.02
2017-11-23T13:53:21.621Z,13.12
2017-11-23T13:55:14.740Z,12.93
2017-11-23T13:56:15.115Z,13.04
2017-11-23T13:58:07.713Z,12.88
2017-11-23T13:59:07.671Z,12.96
2017-11-23T14:01:00.790Z,13.00
2017-11-23T14:02:00.773Z,13.02
2017-11-23T14:03:54.399Z,13.02
2017-11-23T14:04:53.806Z,12.97
2017-11-23T14:06:48.438Z,13.02
2017-11-23T14:07:48.396Z,12.92
2017-11-23T14:09:41.484Z,12.84
2017-11-23T14:10:41.464Z,12.81
2017-11-23T14:12:34.552Z,12.71
2017-11-23T14:13:34.487Z,12.77
2017-11-23T14:15:27.607Z,12.93
2017-11-23T14:16:27.581Z,13.00
2017-11-23T14:18:20.732Z,12.95
2017-11-23T14:19:20.652Z,12.79
2017-11-23T14:21:13.956Z,12.52
2017-11-23T14:22:14.190Z,12.48
2017-11-23T14:24:07.835Z,12.95
2017-11-23T14:25:07.258Z,13.00
2017-11-23T14:27:01.972Z,12.45
2017-11-23T14:28:02.323Z,12.57
2017-11-23T14:29:01.811Z,12.42
2017-11-23T14:30:01.777Z,12.56
2017-11-23T14:31:02.215Z,12.48
2017-11-23T14:32:01.679Z,12.38
2017-11-23T14:33:01.626Z,12.27
2017-11-23T14:34:01.651Z,12.11
2017-11-23T14:35:01.595Z,12.19
2017-11-23T14:36:02.017Z,12.29
2017-11-23T14:37:01.481Z,12.48
2017-11-23T14:38:01.940Z,12.42
2017-11-23T14:39:01.463Z,12.33
2017-11-23T14:40:01.336Z,12.26
2017-11-23T14:41:01.418Z,11.93
2017-11-23T14:42:01.249Z,11.68
2017-11-23T14:43:01.296Z,11.46
2017-11-23T14:44:01.241Z,11.10
2017-11-23T14:45:01.201Z,10.99
2017-11-23T14:46:01.181Z,10.96
2017-11-23T14:47:01.093Z,10.77
2017-11-23T14:48:01.068Z,11.28
2017-11-23T14:49:01.028Z,11.27
2017-11-23T14:50:01.466Z,11.01
2017-11-23T14:51:00.924Z,10.84
2017-11-23T14:52:00.896Z,10.80
2017-11-23T14:53:00.893Z,10.92
2017-11-23T14:54:01.322Z,11.20
2017-11-23T14:55:01.342Z,11.11
2017-11-23T14:56:01.248Z,10.81
2017-11-23T14:57:00.930Z,10.66
2017-11-23T14:58:00.632Z,10.73
2017-11-23T14:59:00.674Z,10.80
2017-11-23T15:00:01.084Z,10.77
2017-11-23T15:01:00.515Z,10.76
2017-11-23T15:02:00.505Z,10.59
2017-11-23T15:03:00.496Z,10.39
2017-11-23T15:04:01.100Z,10.14
2017-11-23T15:05:00.363Z,10.59
2017-11-23T15:06:01.262Z,10.55
2017-11-23T15:07:00.319Z,11.02
2017-11-23T15:08:00.832Z,11.02
2017-11-23T15:09:00.202Z,10.92
2017-11-23T15:10:00.217Z,11.31
2017-11-23T15:11:00.156Z,11.14
2017-11-23T15:12:00.054Z,11.56
2017-11-23T15:13:00.061Z,11.72
2017-11-23T15:13:59.984Z,11.46
2017-11-23T15:14:59.958Z,11.82
2017-11-23T15:15:59.981Z,11.83
2017-11-23T15:16:59.900Z,11.57
2017-11-23T15:18:00.375Z,11.06
2017-11-23T15:18:59.843Z,10.91
2017-11-23T15:19:59.798Z,10.73
2017-11-23T15:21:00.297Z,10.33
2017-11-23T15:21:59.755Z,10.68
2017-11-23T15:22:59.646Z,10.58
2017-11-23T15:23:59.589Z,10.46
2017-11-23T15:25:00.149Z,10.24
2017-11-23T15:25:59.591Z,10.22
2017-11-23T15:26:59.490Z,10.18
2017-11-23T15:27:59.457Z,10.80
2017-11-23T15:28:59.432Z,10.81
2017-11-23T15:29:59.387Z,10.78
2017-11-23T15:30:59.323Z,10.63
2017-11-23T15:31:59.334Z,10.80
2017-11-23T15:32:59.272Z,11.07
2017-11-23T15:33:59.177Z,11.06
2017-11-23T15:34:59.190Z,11.24
2017-11-23T15:35:59.142Z,11.43
2017-11-23T15:36:59.097Z,11.32
2017-11-23T15:37:59.599Z,11.16
2017-11-23T15:38:59.057Z,10.81
2017-11-23T15:39:59.421Z,10.86
2017-11-23T15:40:58.965Z,10.96
2017-11-23T15:41:59.428Z,11.43
2017-11-23T15:42:58.816Z,11.56
2017-11-23T15:43:58.825Z,11.64
2017-11-23T15:44:59.275Z,11.74
2017-11-23T15:45:58.743Z,11.86
2017-11-23T15:46:59.246Z,11.67
2017-11-23T15:47:58.650Z,11.65
2017-11-23T15:48:58.632Z,11.71
2017-11-23T15:49:59.046Z,11.56
2017-11-23T15:50:58.554Z,11.53
2017-11-23T15:51:58.471Z,11.56
2017-11-23T15:52:58.971Z,11.72
2017-11-23T15:53:58.442Z,11.71
2017-11-23T15:54:59.097Z,11.85
2017-11-23T15:55:58.310Z,11.94
2017-11-23T15:56:58.809Z,12.05
2017-11-23T15:57:58.257Z,11.96
2017-11-23T15:58:59.076Z,11.89
2017-11-23T15:59:58.693Z,12.06
2017-11-23T16:00:58.123Z,11.96
2017-11-23T16:01:58.070Z,11.96
2017-11-23T16:02:58.042Z,12.26
2017-11-23T16:03:57.981Z,11.99
2017-11-23T16:04:57.906Z,12.06
2017-11-23T16:05:58.450Z,11.77
2017-11-23T16:06:57.674Z,11.94
2017-11-23T16:07:58.233Z,11.93
2017-11-23T16:08:57.840Z,12.08
2017-11-23T16:09:58.312Z,11.86
2017-11-23T16:10:57.842Z,11.85
2017-11-23T16:11:58.086Z,12.04
2017-11-23T16:12:57.703Z,11.99
2017-11-23T16:13:57.602Z,12.02
2017-11-23T16:14:58.059Z,11.70
2017-11-23T16:15:57.536Z,11.56
2017-11-23T16:16:57.477Z,11.80
2017-11-23T16:17:57.496Z,11.94
2017-11-23T16:18:57.426Z,11.83
2017-11-23T16:19:57.413Z,11.90
2017-11-23T16:20:57.372Z,12.01
2017-11-23T16:21:57.821Z,12.01
2017-11-23T16:22:57.640Z,12.04
2017-11-23T16:23:57.265Z,11.96
2017-11-23T16:24:57.193Z,12.08
2017-11-23T16:25:57.734Z,12.02
2017-11-23T16:26:57.076Z,11.71
2017-11-23T16:27:57.022Z,11.53
2017-11-23T16:28:57.046Z,11.28
2017-11-23T16:29:56.945Z,11.53
2017-11-23T16:30:56.890Z,11.52
2017-11-23T16:31:57.328Z,11.41
2017-11-23T16:32:57.624Z,11.19
2017-11-23T16:33:57.010Z,10.74
2017-11-23T16:34:56.782Z,10.73
2017-11-23T16:35:57.212Z,11.03
2017-11-23T16:36:56.633Z,10.73
2017-11-23T16:37:56.645Z,10.73
2017-11-23T16:38:56.603Z,10.74
2017-11-23T16:39:56.541Z,10.73
2017-11-23T16:40:56.568Z,10.42
2017-11-23T16:41:56.411Z,10.25
2017-11-23T16:42:56.415Z,10.09
2017-11-23T16:43:56.356Z,9.71